createdAt,value
2022-10-05T03:11:04.322Z,101220.13
2022-10-05T03:14:21.090Z,101217.91
2022-10-05T03:17:27.360Z,101217.63
2022-10-05T03:20:52.477Z,101217.66
2022-10-05T03:24:25.744Z,101207.44
2022-10-05T03:27:37.235Z,101204.56
2022-10-05T03:31:02.992Z,101207.56
2022-10-05T03:34:24.919Z,101204.56
2022-10-05T03:37:46.059Z,101205.84
2022-10-05T03:41:03.597Z,101201.94
2022-10-05T03:44:43.941Z,101212.56
2022-10-05T03:48:15.530Z,101210.22
2022-10-05T03:51:34.691Z,101214.84
2022-10-05T03:54:46.831Z,101211.75
2022-10-05T03:57:52.383Z,101217.47
2022-10-05T04:01:02.426Z,101228.84
2022-10-05T04:04:11.095Z,101227.53
2022-10-05T04:07:43.551Z,101235.47
2022-10-05T04:10:52.239Z,101226.87
2022-10-05T04:14:14.297Z,101216.78
2022-10-05T04:17:21.780Z,101230.03
2022-10-05T04:20:44.348Z,101222.12
2022-10-05T04:23:55.561Z,101230.75
2022-10-05T04:27:03.167Z,101225.72
2022-10-05T04:30:12.465Z,101231.41
2022-10-05T04:33:16.152Z,101233.25
2022-10-05T04:36:27.641Z,101226.75
2022-10-05T04:39:36.514Z,101232.69
2022-10-05T04:43:16.084Z,101238.28
2022-10-05T04:46:41.895Z,101230.37
2022-10-05T04:49:56.811Z,101242.31
2022-10-05T04:53:17.048Z,101241.78
2022-10-05T04:56:29.855Z,101244.16
2022-10-05T04:59:48.187Z,101243.37
2022-10-05T05:03:07.625Z,101229.66
2022-10-05T05:06:26.122Z,101222.16
2022-10-05T05:10:14.547Z,101226.66
2022-10-05T05:13:35.296Z,101228.47
2022-10-05T05:16:41.587Z,101227.94
2022-10-05T05:19:58.248Z,101225.12
2022-10-05T05:23:28.743Z,101228.62
2022-10-05T05:27:05.066Z,101235.34
2022-10-05T05:30:35.697Z,101235.94
2022-10-05T05:34:11.714Z,101233.00
2022-10-05T05:37:36.450Z,101241.34
2022-10-05T05:40:57.756Z,101245.59
2022-10-05T05:44:24.299Z,101247.75
2022-10-05T05:47:37.692Z,101246.00
2022-10-05T05:50:59.583Z,101253.53
2022-10-05T05:54:36.381Z,101259.31
2022-10-05T05:57:43.460Z,101261.25
2022-10-05T06:00:52.653Z,101272.06
2022-10-05T06:04:27.838Z,101281.37
2022-10-05T06:07:31.828Z,101283.44
2022-10-05T06:10:48.271Z,101280.06
2022-10-05T06:13:51.837Z,101290.41
2022-10-05T06:17:09.845Z,101294.75
2022-10-05T06:20:43.402Z,101307.19
2022-10-05T06:24:05.020Z,101311.31
2022-10-05T06:27:57.756Z,101329.03
2022-10-05T06:31:26.475Z,101330.12
2022-10-05T06:35:01.678Z,101323.66
2022-10-05T06:38:27.038Z,101321.47
2022-10-05T06:42:05.545Z,101330.19
2022-10-05T06:45:41.863Z,101339.53
2022-10-05T06:48:47.461Z,101341.72
2022-10-05T06:51:58.428Z,101337.12
2022-10-05T06:55:30.270Z,101343.56
2022-10-05T06:58:47.898Z,101347.69
2022-10-05T07:01:56.101Z,101343.78
2022-10-05T07:05:04.990Z,101352.34
2022-10-05T07:08:13.450Z,101360.94
2022-10-05T07:11:18.781Z,101356.50
2022-10-05T07:14:44.756Z,101372.63
2022-10-05T07:18:20.076Z,101362.31
2022-10-05T07:21:41.893Z,101365.81
2022-10-05T07:25:10.390Z,101353.88
2022-10-05T07:28:37.463Z,101347.03
2022-10-05T07:31:54.985Z,101354.97
2022-10-05T07:35:08.183Z,101370.28
2022-10-05T07:38:19.633Z,101376.41
2022-10-05T07:41:28.093Z,101367.62
2022-10-05T07:44:36.384Z,101368.47
2022-10-05T07:47:54.003Z,101366.91
2022-10-05T07:51:01.997Z,101365.00
2022-10-05T07:54:15.767Z,101363.56
2022-10-05T07:57:24.835Z,101363.31
2022-10-05T08:00:47.233Z,101367.09
2022-10-05T08:04:10.893Z,101369.13
2022-10-05T08:07:17.245Z,101373.03
2022-10-05T08:10:39.311Z,101376.44
2022-10-05T08:13:54.774Z,101373.63
2022-10-05T08:17:02.231Z,101361.69
2022-10-05T08:20:21.582Z,101366.22
2022-10-05T08:23:50.741Z,101355.44
2022-10-05T08:27:25.487Z,101341.69
2022-10-05T08:30:31.749Z,101337.44
2022-10-05T08:33:54.520Z,101334.66
2022-10-05T08:37:14.124Z,101340.88
2022-10-05T08:40:18.929Z,101347.78
2022-10-05T08:44:02.664Z,101333.97
2022-10-05T08:47:34.979Z,101323.00
2022-10-05T08:51:08.442Z,101323.06
2022-10-05T08:54:32.479Z,101319.88
2022-10-05T08:57:53.429Z,101331.06
2022-10-05T09:01:09.969Z,101333.81
2022-10-05T09:04:31.622Z,101322.69
2022-10-05T09:08:11.591Z,101336.56
2022-10-05T09:11:36.263Z,101333.75
2022-10-05T09:15:13.691Z,101337.47
2022-10-05T09:18:56.509Z,101345.75
2022-10-05T09:22:06.390Z,101350.50
2022-10-05T09:25:21.083Z,101365.53
2022-10-05T09:28:40.194Z,101358.87
2022-10-05T09:32:02.292Z,101353.38
2022-10-05T09:35:04.342Z,101350.91
2022-10-05T09:38:27.657Z,101350.78
2022-10-05T09:41:58.530Z,101339.78
2022-10-05T09:45:43.647Z,101343.59
2022-10-05T09:49:11.498Z,101353.22
2022-10-05T09:52:38.430Z,101343.34
2022-10-05T09:56:14.596Z,101339.84
2022-10-05T09:59:29.300Z,101328.03
2022-10-05T10:02:46.898Z,101334.34
2022-10-05T10:06:10.474Z,101338.06
2022-10-05T10:09:41.718Z,101333.50
2022-10-05T10:13:17.698Z,101333.59
2022-10-05T10:16:57.587Z,101333.00
2022-10-05T10:20:14.673Z,101327.72
2022-10-05T10:23:35.807Z,101332.84
2022-10-05T10:26:50.258Z,101324.16
2022-10-05T10:30:16.526Z,101320.91
2022-10-05T10:33:40.667Z,101328.53
2022-10-05T10:37:11.674Z,101336.09
2022-10-05T10:40:13.887Z,101336.78
2022-10-05T10:43:22.201Z,101333.34
2022-10-05T10:46:45.147Z,101324.81
2022-10-05T10:50:05.559Z,101331.19
2022-10-05T10:53:10.227Z,101327.09
2022-10-05T10:56:27.849Z,101332.66
2022-10-05T10:59:53.955Z,101319.19
2022-10-05T11:03:32.162Z,101311.06
2022-10-05T11:07:05.509Z,101317.94
2022-10-05T11:10:16.691Z,101324.19
2022-10-05T11:13:48.221Z,101316.94
2022-10-05T11:17:21.425Z,101322.97
2022-10-05T11:20:32.539Z,101309.78
2022-10-05T11:24:05.673Z,101303.44
2022-10-05T11:27:26.556Z,101295.00
2022-10-05T11:30:50.315Z,101309.38
2022-10-05T11:34:18.347Z,101301.87
2022-10-05T11:37:58.110Z,101289.34
2022-10-05T11:41:16.622Z,101287.69
2022-10-05T11:44:57.577Z,101296.91
2022-10-05T11:48:07.206Z,101293.16
2022-10-05T11:51:30.435Z,101292.47
2022-10-05T11:55:06.005Z,101285.97
2022-10-05T11:58:29.981Z,101275.78
2022-10-05T12:01:52.388Z,101278.09
2022-10-05T12:05:11.177Z,101272.66
2022-10-05T12:08:25.641Z,101268.13
2022-10-05T12:11:49.517Z,101263.41
2022-10-05T12:15:03.191Z,101269.62
2022-10-05T12:18:17.159Z,101260.50
2022-10-05T12:21:47.119Z,101270.34
2022-10-05T12:25:02.969Z,101274.16
2022-10-05T12:28:12.110Z,101272.47
2022-10-05T12:31:39.004Z,101267.87
2022-10-05T12:34:56.579Z,101259.81
2022-10-05T12:38:26.982Z,101265.47
2022-10-05T12:41:53.997Z,101258.41
2022-10-05T12:45:03.838Z,101251.31
2022-10-05T12:48:18.720Z,101246.53
2022-10-05T12:51:36.125Z,101241.00
2022-10-05T12:54:57.973Z,101242.63
2022-10-05T12:58:15.894Z,101246.94
2022-10-05T13:01:43.464Z,101232.09
2022-10-05T13:05:01.822Z,101226.09
2022-10-05T13:08:31.184Z,101229.78
2022-10-05T13:11:44.191Z,101234.06
2022-10-05T13:14:59.766Z,101232.88
2022-10-05T13:18:12.028Z,101239.25
2022-10-05T13:21:26.755Z,101232.81
2022-10-05T13:24:36.360Z,101225.28
2022-10-05T13:27:45.228Z,101227.66
2022-10-05T13:31:03.968Z,101220.41
2022-10-05T13:34:15.006Z,101219.00
2022-10-05T13:37:45.188Z,101217.13
2022-10-05T13:41:24.715Z,101215.63
2022-10-05T13:44:52.992Z,101212.25
2022-10-05T13:48:24.332Z,101211.78
2022-10-05T13:51:46.456Z,101210.13
2022-10-05T13:55:06.735Z,101213.50
2022-10-05T13:58:20.688Z,101214.62
2022-10-05T14:01:41.424Z,101215.44
2022-10-05T14:04:58.316Z,101209.25
2022-10-05T14:08:03.149Z,101217.50
2022-10-05T14:11:36.019Z,101212.28
2022-10-05T14:14:45.136Z,101210.50
2022-10-05T14:17:47.483Z,101217.78
2022-10-05T14:21:02.463Z,101216.00
2022-10-05T14:24:49.449Z,101219.03
2022-10-05T14:28:23.944Z,101215.50
2022-10-05T14:31:34.179Z,101221.69
2022-10-05T14:34:42.705Z,101222.97
2022-10-05T14:37:56.079Z,101216.53
2022-10-05T14:41:20.444Z,101215.66
2022-10-05T14:48:10.314Z,101227.81
2022-10-05T14:51:31.762Z,101220.50
2022-10-05T14:54:41.216Z,101215.72
2022-10-05T14:58:18.621Z,101213.94
2022-10-05T15:01:26.722Z,101218.34
2022-10-05T15:04:41.681Z,101211.03
2022-10-05T15:07:48.653Z,101215.38
2022-10-05T15:11:09.142Z,101211.31
2022-10-05T15:14:19.247Z,101204.66
2022-10-05T15:17:30.885Z,101195.34
